Terminal Aerodrome Forecast
Issued by NWS

Home | Current Version | Previous Version | Text Only | Print | Product List | Glossary On
Versions: 1 2 3 4 5 6 7 8 9 10 11 12 13 14 15 16 17 18 19 20 21
000
FTUS46 KPDT 210500
TAFALW
TAF
KALW 210520Z 2106/2206 19008KT P6SM -SHRA BKN050 OVC070
     FM211000 18008KT P6SM SCT050 BKN070
     FM211400 20010KT P6SM SCT060
     FM211800 23012G22KT P6SM FEW060
     FM220200 15006KT P6SM OVC200=

USA.gov is the U.S. government's official web portal to all federal, state and local government web resources and services.